createdAt,value
2022-12-29T00:00:53.587Z,10.48
2022-12-29T00:03:56.128Z,11.48
2022-12-29T00:06:58.675Z,9.85
2022-12-29T00:10:00.866Z,11.07
2022-12-29T00:13:21.549Z,10.75
2022-12-29T00:16:24.005Z,10.95
2022-12-29T00:19:55.470Z,10.77
2022-12-29T00:23:17.077Z,10.07
2022-12-29T00:26:39.180Z,10.63
2022-12-29T00:30:00.128Z,11.55
2022-12-29T00:33:20.484Z,10.35
2022-12-29T00:36:37.058Z,10.27
2022-12-29T00:39:59.797Z,11.13
2022-12-29T00:43:20.353Z,10.50
2022-12-29T00:46:22.476Z,10.05
2022-12-29T00:49:34.472Z,10.10
2022-12-29T00:52:36.835Z,10.55
2022-12-29T00:55:39.564Z,11.65
2022-12-29T00:58:41.715Z,10.65
2022-12-29T01:01:47.371Z,11.68
2022-12-29T01:04:50.988Z,11.35
2022-12-29T01:07:53.028Z,10.35
2022-12-29T01:11:12.365Z,11.52
2022-12-29T01:14:14.732Z,10.45
2022-12-29T01:17:16.961Z,9.23
2022-12-29T01:20:19.307Z,10.23
2022-12-29T01:23:21.382Z,10.82
2022-12-29T01:26:23.496Z,10.70
2022-12-29T01:29:27.669Z,9.32
2022-12-29T01:32:29.734Z,9.80
2022-12-29T01:35:32.815Z,9.18
2022-12-29T01:38:37.189Z,11.15
2022-12-29T01:41:42.419Z,9.68
2022-12-29T01:44:59.445Z,11.23
2022-12-29T01:48:06.392Z,9.00
2022-12-29T01:51:08.710Z,10.43
2022-12-29T01:54:20.931Z,10.27
2022-12-29T01:57:29.440Z,10.10
2022-12-29T02:00:31.839Z,9.70
2022-12-29T02:03:35.559Z,11.50
2022-12-29T02:06:53.098Z,10.07
2022-12-29T02:09:57.194Z,9.82
2022-12-29T02:13:00.340Z,10.55
2022-12-29T02:16:02.489Z,9.48
2022-12-29T02:19:50.402Z,10.35
2022-12-29T02:23:17.261Z,9.30
2022-12-29T02:26:26.074Z,9.95
2022-12-29T02:29:41.335Z,9.63
2022-12-29T02:32:52.673Z,10.15
2022-12-29T02:36:09.063Z,8.95
2022-12-29T02:39:33.130Z,8.63
2022-12-29T02:42:54.690Z,8.85
2022-12-29T02:46:05.918Z,8.90
2022-12-29T02:49:16.464Z,8.55
2022-12-29T02:52:29.399Z,8.80
2022-12-29T02:55:31.454Z,8.93
2022-12-29T02:58:33.848Z,9.15
2022-12-29T03:02:13.435Z,9.27
2022-12-29T03:05:42.675Z,8.07
2022-12-29T03:08:53.665Z,8.40
2022-12-29T03:12:15.728Z,9.07
2022-12-29T03:16:01.392Z,9.82
2022-12-29T03:19:20.480Z,10.10
2022-12-29T03:25:46.987Z,12.20
2022-12-29T03:28:54.298Z,11.05
2022-12-29T03:32:01.255Z,11.45
2022-12-29T03:35:05.312Z,9.45
2022-12-29T03:38:34.857Z,9.82
2022-12-29T03:41:38.099Z,10.82
2022-12-29T03:44:42.591Z,10.95
2022-12-29T03:47:46.021Z,10.95
2022-12-29T03:50:48.752Z,10.68
2022-12-29T03:53:51.417Z,10.57
2022-12-29T03:56:53.524Z,9.25
2022-12-29T04:00:07.995Z,11.40
2022-12-29T04:03:19.631Z,11.35
2022-12-29T04:06:23.250Z,11.75
2022-12-29T04:09:32.436Z,11.00
2022-12-29T04:12:35.142Z,9.88
2022-12-29T04:15:38.215Z,9.93
2022-12-29T04:18:40.495Z,11.13
2022-12-29T04:21:42.937Z,9.52
2022-12-29T04:24:45.248Z,11.05
2022-12-29T04:27:47.895Z,11.43
2022-12-29T04:31:08.789Z,11.73
2022-12-29T04:34:14.617Z,11.45
2022-12-29T04:37:16.818Z,10.35
2022-12-29T04:40:19.621Z,10.73
2022-12-29T04:43:23.199Z,11.00
2022-12-29T04:46:48.121Z,10.90
2022-12-29T04:50:05.742Z,10.32
2022-12-29T04:53:18.020Z,10.80
2022-12-29T04:56:21.367Z,11.77
2022-12-29T04:59:24.168Z,11.88
2022-12-29T05:02:29.942Z,10.02
2022-12-29T05:05:32.700Z,11.45
2022-12-29T05:08:35.700Z,12.43
2022-12-29T05:11:38.989Z,10.38
2022-12-29T05:14:41.570Z,12.70
2022-12-29T05:17:43.726Z,11.52
2022-12-29T05:20:48.415Z,10.98
2022-12-29T05:23:50.932Z,12.25
2022-12-29T05:26:53.433Z,11.07
2022-12-29T05:30:15.030Z,14.32
2022-12-29T05:33:18.662Z,11.20
2022-12-29T05:36:21.067Z,13.68
2022-12-29T05:39:33.583Z,13.02
2022-12-29T05:42:38.605Z,13.35
2022-12-29T05:45:51.299Z,11.43
2022-12-29T05:49:20.381Z,12.55
2022-12-29T05:52:32.762Z,12.45
2022-12-29T05:55:36.131Z,13.07
2022-12-29T05:58:38.548Z,13.23
2022-12-29T06:01:41.569Z,13.52
2022-12-29T06:04:43.797Z,13.50
2022-12-29T06:07:46.954Z,13.55
2022-12-29T06:10:51.766Z,12.60
2022-12-29T06:13:54.184Z,14.85
2022-12-29T06:16:56.433Z,14.98
2022-12-29T06:19:59.781Z,14.93
2022-12-29T06:23:02.131Z,14.70
2022-12-29T06:26:05.398Z,14.27
2022-12-29T06:29:09.740Z,14.77
2022-12-29T06:32:12.317Z,14.73
2022-12-29T06:35:19.651Z,15.48
2022-12-29T06:38:26.999Z,14.57
2022-12-29T06:41:32.328Z,16.02
2022-12-29T06:44:49.480Z,15.25
2022-12-29T06:47:51.539Z,13.73
2022-12-29T06:50:54.789Z,16.83
2022-12-29T06:53:57.202Z,16.08
2022-12-29T06:57:00.586Z,15.68
2022-12-29T07:00:04.268Z,19.45
2022-12-29T07:03:06.590Z,20.20
2022-12-29T07:06:08.729Z,19.73
2022-12-29T07:09:11.308Z,19.08
2022-12-29T07:12:13.488Z,21.05
2022-12-29T07:15:16.343Z,18.30
2022-12-29T07:18:18.591Z,20.60
2022-12-29T07:21:20.927Z,15.50
2022-12-29T07:24:23.055Z,18.67
2022-12-29T07:27:25.063Z,18.38
2022-12-29T07:30:27.666Z,17.15
2022-12-29T07:33:30.795Z,19.40
2022-12-29T07:36:34.881Z,19.05
2022-12-29T07:39:37.064Z,19.90
2022-12-29T07:42:39.430Z,22.25
2022-12-29T07:45:44.234Z,22.67
2022-12-29T07:48:46.392Z,20.63
2022-12-29T07:51:51.068Z,20.63
2022-12-29T07:54:53.493Z,23.48
2022-12-29T07:57:56.467Z,19.98
2022-12-29T08:00:58.918Z,19.42
2022-12-29T08:04:01.298Z,16.58
2022-12-29T08:07:04.187Z,16.50
2022-12-29T08:10:07.007Z,15.25
2022-12-29T08:13:09.198Z,15.55
2022-12-29T08:16:11.407Z,12.95
2022-12-29T08:19:19.905Z,11.15
2022-12-29T08:22:22.077Z,10.90
2022-12-29T08:25:24.277Z,10.48
2022-12-29T08:28:26.972Z,10.80
2022-12-29T08:31:29.689Z,11.02
2022-12-29T08:34:32.960Z,10.35
2022-12-29T08:37:35.216Z,10.93
2022-12-29T08:40:37.603Z,11.23
2022-12-29T08:43:39.925Z,10.20
2022-12-29T08:46:42.305Z,13.98
2022-12-29T08:49:44.373Z,11.30
2022-12-29T08:52:46.559Z,12.68
2022-12-29T08:56:04.024Z,12.18
2022-12-29T08:59:11.893Z,11.13
2022-12-29T09:02:20.325Z,10.48
2022-12-29T09:05:26.609Z,11.32
2022-12-29T09:08:29.056Z,10.50
2022-12-29T09:11:31.277Z,10.35
2022-12-29T09:14:33.544Z,11.05
2022-12-29T09:17:45.682Z,10.75
2022-12-29T09:20:48.606Z,12.02
2022-12-29T09:23:51.549Z,11.13
2022-12-29T09:26:53.476Z,11.32
2022-12-29T09:29:55.549Z,10.25
2022-12-29T09:32:58.340Z,11.13
2022-12-29T09:36:00.593Z,11.32
2022-12-29T09:39:02.665Z,9.82
2022-12-29T09:42:10.368Z,12.00
2022-12-29T09:45:20.162Z,11.30
2022-12-29T09:48:28.541Z,10.82
2022-12-29T09:51:32.637Z,11.00
2022-12-29T09:54:43.470Z,10.93
2022-12-29T09:58:12.425Z,12.15
2022-12-29T10:01:35.454Z,11.05
2022-12-29T10:04:45.448Z,10.20
2022-12-29T10:08:15.679Z,10.38
2022-12-29T10:11:19.490Z,10.13
2022-12-29T10:14:38.388Z,11.10
2022-12-29T10:27:15.021Z,9.85
2022-12-29T10:30:17.527Z,10.57
2022-12-29T10:33:37.591Z,10.05
2022-12-29T10:36:50.538Z,11.35
2022-12-29T10:39:54.521Z,11.13
2022-12-29T10:47:32.363Z,12.50
2022-12-29T10:50:35.060Z,11.80
2022-12-29T10:53:46.408Z,10.98
2022-12-29T10:57:26.970Z,12.30
2022-12-29T11:00:31.170Z,12.50
2022-12-29T11:03:38.913Z,12.23
2022-12-29T11:11:33.403Z,18.45
2022-12-29T11:18:14.536Z,11.48
2022-12-29T11:21:31.951Z,10.73
2022-12-29T11:24:34.947Z,11.35
2022-12-29T11:27:37.027Z,9.57
2022-12-29T11:30:39.559Z,9.52
2022-12-29T11:33:41.909Z,9.60
2022-12-29T11:36:44.090Z,10.00
2022-12-29T11:39:58.748Z,10.25
2022-12-29T11:43:05.873Z,9.48
2022-12-29T11:46:14.918Z,9.15
2022-12-29T11:49:24.940Z,10.75
2022-12-29T11:52:34.300Z,10.75
2022-12-29T11:55:36.417Z,11.50
2022-12-29T11:58:39.804Z,17.17
2022-12-29T12:01:44.323Z,19.70
2022-12-29T12:04:50.431Z,15.52
2022-12-29T12:08:11.709Z,15.20
2022-12-29T12:11:25.470Z,13.10
2022-12-29T12:14:44.946Z,10.65
2022-12-29T12:18:33.423Z,10.43
2022-12-29T12:21:46.039Z,10.63
2022-12-29T12:25:13.917Z,11.18
2022-12-29T12:28:27.072Z,11.98
2022-12-29T12:31:43.337Z,12.30
2022-12-29T12:34:48.783Z,10.48
2022-12-29T12:38:19.846Z,11.55
2022-12-29T12:41:47.493Z,10.52
2022-12-29T12:45:13.203Z,12.25
2022-12-29T12:48:42.450Z,11.05
2022-12-29T12:52:08.912Z,12.00
2022-12-29T12:55:35.232Z,10.38
2022-12-29T12:58:58.258Z,10.23
2022-12-29T13:02:22.228Z,10.70
2022-12-29T13:05:36.492Z,9.35
2022-12-29T13:09:12.482Z,10.20
2022-12-29T13:12:20.292Z,9.00
2022-12-29T13:15:45.363Z,9.70
2022-12-29T13:19:11.472Z,9.63
2022-12-29T13:22:40.050Z,9.63
2022-12-29T13:25:54.746Z,11.35
2022-12-29T13:29:18.544Z,9.32
2022-12-29T13:32:33.730Z,9.65
2022-12-29T13:35:47.028Z,11.27
2022-12-29T13:38:57.218Z,8.52
2022-12-29T13:42:01.674Z,10.70
2022-12-29T13:45:08.212Z,11.50
2022-12-29T13:48:26.492Z,10.80
2022-12-29T13:51:30.209Z,12.63
2022-12-29T13:54:32.488Z,11.75
2022-12-29T13:58:00.983Z,13.27
2022-12-29T14:01:39.257Z,12.43
2022-12-29T14:05:01.738Z,12.55
2022-12-29T14:08:07.563Z,13.10
2022-12-29T14:11:15.489Z,12.77
2022-12-29T14:14:22.669Z,13.70
2022-12-29T14:17:25.058Z,13.40
2022-12-29T14:20:27.436Z,13.55
2022-12-29T14:23:37.260Z,13.65
2022-12-29T14:26:39.327Z,13.98
2022-12-29T14:29:47.241Z,11.70
2022-12-29T14:33:14.233Z,12.95
2022-12-29T14:36:20.706Z,13.13
2022-12-29T14:39:34.620Z,11.77
2022-12-29T14:42:41.533Z,12.73
2022-12-29T14:45:44.108Z,12.00
2022-12-29T14:48:46.447Z,13.18
2022-12-29T14:51:50.107Z,12.85
2022-12-29T14:55:19.004Z,13.48
2022-12-29T14:58:58.389Z,32.22
2022-12-29T15:02:07.385Z,25.20
2022-12-29T15:05:29.365Z,17.90
2022-12-29T15:08:39.951Z,16.10
2022-12-29T15:11:45.214Z,14.70
2022-12-29T15:14:58.067Z,13.93
2022-12-29T15:18:15.540Z,13.52
2022-12-29T15:21:26.291Z,12.95
2022-12-29T15:24:37.965Z,10.98
2022-12-29T15:31:06.987Z,11.98
2022-12-29T15:34:14.828Z,14.27
2022-12-29T15:37:24.864Z,14.77
2022-12-29T15:40:32.638Z,16.35
2022-12-29T15:43:49.878Z,18.08
2022-12-29T15:46:53.240Z,19.42
2022-12-29T15:50:36.513Z,21.75
2022-12-29T15:53:39.116Z,19.92
2022-12-29T15:56:42.346Z,18.48
2022-12-29T15:59:52.291Z,15.10
2022-12-29T16:02:56.681Z,16.95
2022-12-29T16:06:12.334Z,26.60
2022-12-29T16:09:20.234Z,26.30
2022-12-29T16:12:28.223Z,17.13
2022-12-29T16:15:30.739Z,18.33
2022-12-29T16:18:38.751Z,16.95
2022-12-29T16:21:43.851Z,15.30
2022-12-29T16:24:47.310Z,16.25
2022-12-29T16:27:50.552Z,18.85
2022-12-29T16:31:25.793Z,17.45
2022-12-29T16:34:46.296Z,18.40
2022-12-29T16:37:49.070Z,17.75
2022-12-29T16:41:04.827Z,18.38
2022-12-29T16:44:30.579Z,18.02
2022-12-29T16:47:32.659Z,15.52
2022-12-29T16:50:38.827Z,16.77
2022-12-29T16:53:43.099Z,24.85
2022-12-29T16:56:47.112Z,18.23
2022-12-29T16:59:52.909Z,18.38
2022-12-29T17:02:58.513Z,16.65
2022-12-29T17:06:00.757Z,15.73
2022-12-29T17:09:27.784Z,15.18
2022-12-29T17:12:33.521Z,14.88
2022-12-29T17:15:36.638Z,15.75
2022-12-29T17:22:26.186Z,15.68
2022-12-29T17:25:49.429Z,16.50
2022-12-29T17:29:07.992Z,15.32
2022-12-29T17:32:17.753Z,16.13
2022-12-29T17:35:22.248Z,16.33
2022-12-29T17:38:48.998Z,17.10
2022-12-29T17:41:53.864Z,14.20
2022-12-29T17:48:40.242Z,16.85
2022-12-29T17:53:00.833Z,18.38
2022-12-29T18:05:43.322Z,18.75
2022-12-29T18:09:50.456Z,17.65
2022-12-29T18:13:15.816Z,19.73
2022-12-29T18:17:26.334Z,20.73
2022-12-29T18:20:30.749Z,18.52
2022-12-29T18:23:37.040Z,17.48
2022-12-29T18:26:49.089Z,16.48
2022-12-29T18:33:58.924Z,16.75
2022-12-29T18:37:03.085Z,17.42
2022-12-29T18:40:05.902Z,19.33
2022-12-29T18:43:55.213Z,17.75
2022-12-29T18:46:57.923Z,19.57
2022-12-29T18:50:00.000Z,19.75
2022-12-29T18:53:04.133Z,21.45
2022-12-29T18:56:07.703Z,25.30
2022-12-29T18:59:09.815Z,24.13
2022-12-29T19:02:17.799Z,24.90
2022-12-29T19:05:26.019Z,23.88
2022-12-29T19:08:28.247Z,26.40
2022-12-29T19:11:30.342Z,23.98
2022-12-29T19:14:32.551Z,24.95
2022-12-29T19:17:37.261Z,25.48
2022-12-29T19:20:42.868Z,25.52
2022-12-29T19:23:45.254Z,25.83
2022-12-29T19:26:49.603Z,21.23
2022-12-29T19:29:51.616Z,25.73
2022-12-29T19:32:57.865Z,26.38
2022-12-29T19:36:02.602Z,25.77
2022-12-29T19:39:04.881Z,27.38
2022-12-29T19:42:09.441Z,28.50
2022-12-29T19:45:12.109Z,25.23
2022-12-29T19:48:19.146Z,25.88
2022-12-29T19:51:25.606Z,25.45
2022-12-29T19:54:30.111Z,23.63
2022-12-29T19:57:32.687Z,25.95
2022-12-29T20:00:34.883Z,24.83
2022-12-29T20:03:39.618Z,25.35
2022-12-29T20:06:44.118Z,22.80
2022-12-29T20:09:47.755Z,23.10
2022-12-29T20:12:50.350Z,24.63
2022-12-29T20:15:58.241Z,24.55
2022-12-29T20:19:00.376Z,24.70
2022-12-29T20:22:06.744Z,24.55
2022-12-29T20:25:43.622Z,26.73
2022-12-29T20:28:33.037Z,18.92
2022-12-29T20:31:39.022Z,25.23
2022-12-29T20:34:43.166Z,23.52
2022-12-29T20:37:45.219Z,23.13
2022-12-29T20:40:47.275Z,25.60
2022-12-29T20:43:50.044Z,24.58
2022-12-29T20:46:52.602Z,24.17
2022-12-29T20:49:57.022Z,21.20
2022-12-29T20:52:59.933Z,24.15
2022-12-29T20:56:05.257Z,25.63
2022-12-29T20:59:26.834Z,23.05
2022-12-29T21:02:36.863Z,23.48
2022-12-29T21:05:41.185Z,24.88
2022-12-29T21:09:10.985Z,26.23
2022-12-29T21:12:24.395Z,31.08
2022-12-29T21:20:25.019Z,26.58
2022-12-29T21:23:29.144Z,26.10
2022-12-29T21:26:36.098Z,24.48
2022-12-29T21:29:45.237Z,26.45
2022-12-29T21:32:49.485Z,26.13
2022-12-29T21:36:09.342Z,25.55
2022-12-29T21:39:13.733Z,23.83
2022-12-29T21:42:18.588Z,26.08
2022-12-29T21:45:26.775Z,24.27
2022-12-29T21:48:30.318Z,24.48
2022-12-29T21:51:54.141Z,23.48
2022-12-29T21:55:40.694Z,25.75
2022-12-29T21:59:04.365Z,24.67
2022-12-29T22:02:38.941Z,22.35
2022-12-29T22:06:03.174Z,23.55
2022-12-29T22:09:23.404Z,23.85
2022-12-29T22:12:46.605Z,22.50
2022-12-29T22:15:53.627Z,23.38
2022-12-29T22:19:04.603Z,25.35
2022-12-29T22:22:09.171Z,23.42
2022-12-29T22:25:11.408Z,21.42
2022-12-29T22:28:13.474Z,25.75
2022-12-29T22:31:45.556Z,22.98
2022-12-29T22:34:51.044Z,22.17
2022-12-29T22:37:53.454Z,23.50
2022-12-29T22:40:59.746Z,23.50
2022-12-29T22:44:02.217Z,23.20
2022-12-29T22:47:04.478Z,23.00
2022-12-29T22:50:06.972Z,24.35
2022-12-29T22:53:09.330Z,23.30
2022-12-29T22:56:14.288Z,23.02
2022-12-29T22:59:16.687Z,23.48
2022-12-29T23:02:19.376Z,22.92
2022-12-29T23:05:22.606Z,23.00
2022-12-29T23:08:25.258Z,23.38
2022-12-29T23:11:28.453Z,21.88
2022-12-29T23:14:30.793Z,24.25
2022-12-29T23:17:33.273Z,23.75
2022-12-29T23:20:37.933Z,23.27
2022-12-29T23:23:56.188Z,22.57
2022-12-29T23:26:58.368Z,23.40
2022-12-29T23:30:00.375Z,23.73
2022-12-29T23:33:02.645Z,23.10
2022-12-29T23:36:05.518Z,24.80
2022-12-29T23:39:11.056Z,22.90
2022-12-29T23:42:13.112Z,23.92
2022-12-29T23:45:15.394Z,25.40
2022-12-29T23:48:17.480Z,23.60
2022-12-29T23:51:19.837Z,25.35
2022-12-29T23:54:21.926Z,22.80
2022-12-29T23:57:24.010Z,24.65
